Detall de PIREP

Printer-friendly versionPDF version

[2014/09/29 10:06:00]
Flight IATA:CT1005
Pilot Number:011
Company ICAO:CAT
Aircraft Type:B738/F
PAX:160
Departing Airport: EKBI
Destination Airport: LZKZ
Alternate Airport:LZIB
Online: VATSIM
Route:RIDSI SONAL UM602 BINKA M602 CHO L996 DENKO L619 CZE L623 LENOV B7 NOKRI
Flight Level:F370
No Slew and time accel
No pause
Crash detect
Detect pilot in Cockpit between each 30 and 45 minutes
10:06 Zero fuel Weight: 136990 Lbs, Fuel Weight: 16913 Lbs
10:06 VATSIM:EKBI 290920Z 26002KT 9999 FEW003 BKN004 14/13 Q1023
10:06 VATSIM:LZKZ 291000Z 20009KT CAVOK 17/11 Q1029 NOSIG
10:07 Parking Brakes off
10:18 Take-off
10:18 Take off Weight: 153037 Lbs
10:18 Wind: 261º @ 002 Knots Heading: 266º
10:18 POS N55º 44´ 25´´ E009º 09´ 04´´
10:18 Flaps:5 at 169 Knots
10:18 Gear Up: 170 Knots
10:19 Flaps:4 at 238 Knots
10:19 Flaps:3 at 241 Knots
10:20 Flaps:2 at 239 Knots
10:20 Flaps:1 at 239 Knots
10:20 Flaps:0 at 239 Knots
10:33 Wind:278º@009 Knots Heading: 114º Ground Speed: 356 Knots Altitude 31332 ft
10:38 TOC
10:38 Fuel Weight: 12218 Lb
10:48 Wind:265º@014 Knots Heading: 158º Ground Speed: 454 Knots Altitude 37263 ft
11:03 Wind:199º@017 Knots Heading: 156º Ground Speed: 437 Knots Altitude 37280 ft
11:18 Wind:217º@027 Knots Heading: 137º Ground Speed: 445 Knots Altitude 37312 ft
11:32 TOD
11:32 Fuel Weight: 7931 Lb
11:33 Wind:220º@042 Knots Heading: 142º Ground Speed: 441 Knots Altitude 36597 ft
11:48 Wind:228º@017 Knots Heading: 169º Ground Speed: 323 Knots Altitude 7952 ft
11:51 Flaps:1 at 260 Knots
11:51 Flaps:2 at 258 Knots
11:51 Flaps:3 at 235 Knots
11:52 Flaps:4 at 201 Knots
11:52 Flaps:5 at 190 Knots
11:53 Flaps:6 at 179 Knots
11:54 Gear Down: 177 Knots
11:57 Flaps:7 at 173 Knots
11:58 Flaps:8 at 150 Knots
12:03 Wind:237º@012 Knots Heading: 196º Ground Speed: 131 Knots Altitude 826 ft
12:03 TouchDown:Rate -151 ft/min Speed: 121 Knots
12:03 VATSIM:LZKZ 291200Z 22011KT 190V250 CAVOK 20/10 Q1028 NOSIG
12:03 Land
12:03 Wind:237º@012 Knots
12:03 Heading: 199º
12:03 Flight Duration: 01:45
12:03 Landing Weight: 142626 Lbs
12:03 POS N48º 39´ 50´´ E021º 14´ 28´´
12:06 Parking brakes on
12:06 Block to Block Duration: 01:59
12:06 Final Fuel: 5354 Lbls
12:06 Spent Fuel: 11558 Lbls
12:06 Flight Length: 668 NM
12:06 TOD Land Length: 154 NM

Exportar CSV

Powered by Drupal - Modified by Danger4k